sensor_id;sensor_type;location;lat;lon;timestamp;temperature;humidity
12315;DHT22;23886;46.614;14.276;2023-04-30T00:00:33;9.90;99.90
12315;DHT22;23886;46.614;14.276;2023-04-30T00:03:01;9.90;99.90
12315;DHT22;23886;46.614;14.276;2023-04-30T00:05:28;9.80;99.90
12315;DHT22;23886;46.614;14.276;2023-04-30T00:07:57;9.80;99.90
12315;DHT22;23886;46.614;14.276;2023-04-30T00:10:24;9.90;99.90
12315;DHT22;23886;46.614;14.276;2023-04-30T00:12:51;9.90;99.90
12315;DHT22;23886;46.614;14.276;2023-04-30T00:15:18;9.90;99.90
12315;DHT22;23886;46.614;14.276;2023-04-30T00:17:45;9.80;99.90
12315;DHT22;23886;46.614;14.276;2023-04-30T00:20:12;9.70;99.90
12315;DHT22;23886;46.614;14.276;2023-04-30T00:22:39;9.80;99.90
12315;DHT22;23886;46.614;14.276;2023-04-30T00:25:08;10.00;99.90
12315;DHT22;23886;46.614;14.276;2023-04-30T00:27:35;10.10;99.90
12315;DHT22;23886;46.614;14.276;2023-04-30T00:30:03;10.30;99.90
12315;DHT22;23886;46.614;14.276;2023-04-30T00:32:30;10.40;99.90
12315;DHT22;23886;46.614;14.276;2023-04-30T00:34:57;10.50;99.90
12315;DHT22;23886;46.614;14.276;2023-04-30T00:37:24;10.60;99.90
12315;DHT22;23886;46.614;14.276;2023-04-30T00:39:51;10.60;99.90
12315;DHT22;23886;46.614;14.276;2023-04-30T00:42:19;10.70;99.90
12315;DHT22;23886;46.614;14.276;2023-04-30T00:44:46;10.70;99.90
12315;DHT22;23886;46.614;14.276;2023-04-30T00:47:13;10.70;99.90
12315;DHT22;23886;46.614;14.276;2023-04-30T00:49:40;10.70;99.90
12315;DHT22;23886;46.614;14.276;2023-04-30T00:52:07;10.70;99.90
12315;DHT22;23886;46.614;14.276;2023-04-30T00:54:34;10.80;99.90
12315;DHT22;23886;46.614;14.276;2023-04-30T00:57:02;10.80;99.90
12315;DHT22;23886;46.614;14.276;2023-04-30T00:59:32;10.80;99.90
12315;DHT22;23886;46.614;14.276;2023-04-30T01:02:01;10.70;99.90
12315;DHT22;23886;46.614;14.276;2023-04-30T01:04:29;10.70;99.90
12315;DHT22;23886;46.614;14.276;2023-04-30T01:06:56;10.70;99.90
12315;DHT22;23886;46.614;14.276;2023-04-30T01:09:24;10.80;99.90
12315;DHT22;23886;46.614;14.276;2023-04-30T01:11:56;10.60;99.90
12315;DHT22;23886;46.614;14.276;2023-04-30T01:14:29;10.70;99.90
12315;DHT22;23886;46.614;14.276;2023-04-30T01:17:05;10.70;99.90
12315;DHT22;23886;46.614;14.276;2023-04-30T01:19:41;10.50;99.90
12315;DHT22;23886;46.614;14.276;2023-04-30T01:22:11;10.60;99.90
12315;DHT22;23886;46.614;14.276;2023-04-30T01:25:00;10.60;99.90
12315;DHT22;23886;46.614;14.276;2023-04-30T01:27:50;10.60;99.90
12315;DHT22;23886;46.614;14.276;2023-04-30T01:30:22;10.50;99.90
12315;DHT22;23886;46.614;14.276;2023-04-30T01:32:50;10.40;99.90
12315;DHT22;23886;46.614;14.276;2023-04-30T01:35:17;10.40;99.90
12315;DHT22;23886;46.614;14.276;2023-04-30T01:37:51;10.40;99.90
12315;DHT22;23886;46.614;14.276;2023-04-30T01:40:23;10.50;99.90
12315;DHT22;23886;46.614;14.276;2023-04-30T01:43:08;10.60;99.90
12315;DHT22;23886;46.614;14.276;2023-04-30T01:45:51;10.50;99.90
12315;DHT22;23886;46.614;14.276;2023-04-30T01:51:10;10.60;99.90
12315;DHT22;23886;46.614;14.276;2023-04-30T01:53:41;10.60;99.90
12315;DHT22;23886;46.614;14.276;2023-04-30T01:56:13;10.70;99.90
12315;DHT22;23886;46.614;14.276;2023-04-30T01:58:45;10.80;99.90
12315;DHT22;23886;46.614;14.276;2023-04-30T02:01:25;10.80;99.90
12315;DHT22;23886;46.614;14.276;2023-04-30T02:03:52;10.70;99.90
12315;DHT22;23886;46.614;14.276;2023-04-30T02:06:19;10.70;99.90
12315;DHT22;23886;46.614;14.276;2023-04-30T02:08:46;10.70;99.90
12315;DHT22;23886;46.614;14.276;2023-04-30T02:11:13;10.70;99.90
12315;DHT22;23886;46.614;14.276;2023-04-30T02:13:40;10.70;99.90
12315;DHT22;23886;46.614;14.276;2023-04-30T02:16:08;10.80;99.90
12315;DHT22;23886;46.614;14.276;2023-04-30T02:18:35;10.80;99.90
12315;DHT22;23886;46.614;14.276;2023-04-30T02:21:02;10.80;99.90
12315;DHT22;23886;46.614;14.276;2023-04-30T02:23:29;10.70;99.90
12315;DHT22;23886;46.614;14.276;2023-04-30T02:25:56;10.60;99.90
12315;DHT22;23886;46.614;14.276;2023-04-30T02:28:23;10.50;99.90
12315;DHT22;23886;46.614;14.276;2023-04-30T02:30:50;10.50;99.90
12315;DHT22;23886;46.614;14.276;2023-04-30T02:33:19;10.40;99.90
12315;DHT22;23886;46.614;14.276;2023-04-30T02:35:46;10.20;99.90
12315;DHT22;23886;46.614;14.276;2023-04-30T02:38:13;10.10;99.90
12315;DHT22;23886;46.614;14.276;2023-04-30T02:40:40;10.10;99.90
12315;DHT22;23886;46.614;14.276;2023-04-30T02:43:07;10.10;99.90
12315;DHT22;23886;46.614;14.276;2023-04-30T02:45:34;10.00;99.90
12315;DHT22;23886;46.614;14.276;2023-04-30T02:48:01;9.90;99.90
12315;DHT22;23886;46.614;14.276;2023-04-30T02:50:29;10.00;99.90
12315;DHT22;23886;46.614;14.276;2023-04-30T02:52:56;9.90;99.90
12315;DHT22;23886;46.614;14.276;2023-04-30T02:55:23;9.90;99.90
12315;DHT22;23886;46.614;14.276;2023-04-30T02:57:50;9.80;99.90
12315;DHT22;23886;46.614;14.276;2023-04-30T03:00:17;9.70;99.90
12315;DHT22;23886;46.614;14.276;2023-04-30T03:02:44;9.50;99.90
12315;DHT22;23886;46.614;14.276;2023-04-30T03:05:12;9.50;99.90
12315;DHT22;23886;46.614;14.276;2023-04-30T03:07:41;9.40;99.90
12315;DHT22;23886;46.614;14.276;2023-04-30T03:10:09;9.40;99.90
12315;DHT22;23886;46.614;14.276;2023-04-30T03:12:36;9.30;99.90
12315;DHT22;23886;46.614;14.276;2023-04-30T03:15:04;9.30;99.90
12315;DHT22;23886;46.614;14.276;2023-04-30T03:17:31;9.30;99.90
12315;DHT22;23886;46.614;14.276;2023-04-30T03:19:58;9.40;99.90
12315;DHT22;23886;46.614;14.276;2023-04-30T03:22:25;9.30;99.90
12315;DHT22;23886;46.614;14.276;2023-04-30T03:24:53;9.40;99.90
12315;DHT22;23886;46.614;14.276;2023-04-30T03:27:20;9.40;99.90
12315;DHT22;23886;46.614;14.276;2023-04-30T03:29:47;9.40;99.90
12315;DHT22;23886;46.614;14.276;2023-04-30T03:32:14;9.40;99.90
12315;DHT22;23886;46.614;14.276;2023-04-30T03:34:41;9.40;99.90
12315;DHT22;23886;46.614;14.276;2023-04-30T03:37:08;9.50;99.90
12315;DHT22;23886;46.614;14.276;2023-04-30T03:39:35;9.70;99.90
12315;DHT22;23886;46.614;14.276;2023-04-30T03:42:03;9.70;99.90
12315;DHT22;23886;46.614;14.276;2023-04-30T03:44:30;9.60;99.90
12315;DHT22;23886;46.614;14.276;2023-04-30T03:46:57;9.60;99.90
12315;DHT22;23886;46.614;14.276;2023-04-30T03:49:24;9.60;99.90
12315;DHT22;23886;46.614;14.276;2023-04-30T03:51:51;9.70;99.90
12315;DHT22;23886;46.614;14.276;2023-04-30T03:54:18;9.70;99.90
12315;DHT22;23886;46.614;14.276;2023-04-30T03:56:45;9.60;99.90
12315;DHT22;23886;46.614;14.276;2023-04-30T03:59:14;9.50;99.90
12315;DHT22;23886;46.614;14.276;2023-04-30T04:01:41;9.40;99.90
12315;DHT22;23886;46.614;14.276;2023-04-30T04:04:08;9.30;99.90
12315;DHT22;23886;46.614;14.276;2023-04-30T04:06:35;9.20;99.90
12315;DHT22;23886;46.614;14.276;2023-04-30T04:09:02;9.20;99.90
12315;DHT22;23886;46.614;14.276;2023-04-30T04:11:30;9.30;99.90
12315;DHT22;23886;46.614;14.276;2023-04-30T04:13:57;9.40;99.90
12315;DHT22;23886;46.614;14.276;2023-04-30T04:16:26;9.30;99.90
12315;DHT22;23886;46.614;14.276;2023-04-30T04:18:53;9.50;99.90
12315;DHT22;23886;46.614;14.276;2023-04-30T04:21:20;9.50;99.90
12315;DHT22;23886;46.614;14.276;2023-04-30T04:23:47;9.50;99.90
12315;DHT22;23886;46.614;14.276;2023-04-30T04:26:14;9.60;99.90
12315;DHT22;23886;46.614;14.276;2023-04-30T04:28:41;9.60;99.90
12315;DHT22;23886;46.614;14.276;2023-04-30T04:31:08;9.50;99.90
12315;DHT22;23886;46.614;14.276;2023-04-30T04:33:37;9.50;99.90
12315;DHT22;23886;46.614;14.276;2023-04-30T04:36:04;9.50;99.90
12315;DHT22;23886;46.614;14.276;2023-04-30T04:38:32;9.50;99.90
12315;DHT22;23886;46.614;14.276;2023-04-30T04:40:59;9.60;99.90
12315;DHT22;23886;46.614;14.276;2023-04-30T04:43:26;9.70;99.90
12315;DHT22;23886;46.614;14.276;2023-04-30T04:45:53;9.70;99.90
12315;DHT22;23886;46.614;14.276;2023-04-30T04:48:20;9.80;99.90
12315;DHT22;23886;46.614;14.276;2023-04-30T04:50:48;9.90;99.90
12315;DHT22;23886;46.614;14.276;2023-04-30T04:53:15;10.00;99.90
12315;DHT22;23886;46.614;14.276;2023-04-30T04:55:42;10.10;99.90
12315;DHT22;23886;46.614;14.276;2023-04-30T04:58:09;10.10;99.90
12315;DHT22;23886;46.614;14.276;2023-04-30T05:00:37;10.10;99.90
12315;DHT22;23886;46.614;14.276;2023-04-30T05:03:04;10.30;99.90
12315;DHT22;23886;46.614;14.276;2023-04-30T05:05:31;10.60;99.90
12315;DHT22;23886;46.614;14.276;2023-04-30T05:07:59;10.50;99.90
12315;DHT22;23886;46.614;14.276;2023-04-30T05:10:26;10.50;99.90
12315;DHT22;23886;46.614;14.276;2023-04-30T05:12:53;10.50;99.90
12315;DHT22;23886;46.614;14.276;2023-04-30T05:15:21;10.40;99.90
12315;DHT22;23886;46.614;14.276;2023-04-30T05:17:48;10.30;99.90
12315;DHT22;23886;46.614;14.276;2023-04-30T05:20:15;10.30;99.90
12315;DHT22;23886;46.614;14.276;2023-04-30T05:22:42;10.40;99.90
12315;DHT22;23886;46.614;14.276;2023-04-30T05:25:10;10.50;99.90
12315;DHT22;23886;46.614;14.276;2023-04-30T05:27:37;10.70;99.90
12315;DHT22;23886;46.614;14.276;2023-04-30T05:30:05;10.90;99.90
12315;DHT22;23886;46.614;14.276;2023-04-30T05:32:34;11.20;99.90
12315;DHT22;23886;46.614;14.276;2023-04-30T05:35:01;11.30;99.90
12315;DHT22;23886;46.614;14.276;2023-04-30T05:37:28;11.60;99.90
12315;DHT22;23886;46.614;14.276;2023-04-30T05:39:55;11.90;99.90
12315;DHT22;23886;46.614;14.276;2023-04-30T05:42:23;12.10;99.90
12315;DHT22;23886;46.614;14.276;2023-04-30T05:44:50;12.50;99.90
12315;DHT22;23886;46.614;14.276;2023-04-30T05:47:17;12.60;99.90
12315;DHT22;23886;46.614;14.276;2023-04-30T05:49:44;12.30;99.90
12315;DHT22;23886;46.614;14.276;2023-04-30T05:52:11;12.10;99.90
12315;DHT22;23886;46.614;14.276;2023-04-30T05:54:39;12.00;99.90
12315;DHT22;23886;46.614;14.276;2023-04-30T05:57:06;11.90;99.90
12315;DHT22;23886;46.614;14.276;2023-04-30T05:59:35;11.80;99.90
12315;DHT22;23886;46.614;14.276;2023-04-30T06:02:02;12.00;99.90
12315;DHT22;23886;46.614;14.276;2023-04-30T06:04:29;12.20;99.90
12315;DHT22;23886;46.614;14.276;2023-04-30T06:06:56;12.20;99.90
12315;DHT22;23886;46.614;14.276;2023-04-30T06:09:23;12.20;99.90
12315;DHT22;23886;46.614;14.276;2023-04-30T06:11:50;12.30;99.90
12315;DHT22;23886;46.614;14.276;2023-04-30T06:14:17;12.60;99.90
12315;DHT22;23886;46.614;14.276;2023-04-30T06:16:48;12.60;99.90
12315;DHT22;23886;46.614;14.276;2023-04-30T06:19:15;12.50;99.90
12315;DHT22;23886;46.614;14.276;2023-04-30T06:21:42;12.60;99.90
12315;DHT22;23886;46.614;14.276;2023-04-30T06:24:09;12.80;99.90
12315;DHT22;23886;46.614;14.276;2023-04-30T06:26:37;13.00;99.90
12315;DHT22;23886;46.614;14.276;2023-04-30T06:29:04;13.00;99.90
12315;DHT22;23886;46.614;14.276;2023-04-30T06:31:31;12.90;99.90
12315;DHT22;23886;46.614;14.276;2023-04-30T06:33:59;13.00;99.90
12315;DHT22;23886;46.614;14.276;2023-04-30T06:36:26;13.10;99.90
12315;DHT22;23886;46.614;14.276;2023-04-30T06:38:53;13.20;99.90
12315;DHT22;23886;46.614;14.276;2023-04-30T06:41:20;13.10;99.90
12315;DHT22;23886;46.614;14.276;2023-04-30T06:43:47;13.00;99.90
12315;DHT22;23886;46.614;14.276;2023-04-30T06:46:14;12.80;99.90
12315;DHT22;23886;46.614;14.276;2023-04-30T06:48:41;12.70;99.90
12315;DHT22;23886;46.614;14.276;2023-04-30T06:51:09;12.90;99.90
12315;DHT22;23886;46.614;14.276;2023-04-30T06:53:36;12.90;99.90
12315;DHT22;23886;46.614;14.276;2023-04-30T06:56:04;12.80;99.90
12315;DHT22;23886;46.614;14.276;2023-04-30T06:58:31;12.90;99.90
12315;DHT22;23886;46.614;14.276;2023-04-30T07:00:58;12.90;99.90
12315;DHT22;23886;46.614;14.276;2023-04-30T07:03:25;13.00;99.90
12315;DHT22;23886;46.614;14.276;2023-04-30T07:05:52;13.00;99.90
12315;DHT22;23886;46.614;14.276;2023-04-30T07:08:21;13.20;99.90
12315;DHT22;23886;46.614;14.276;2023-04-30T07:10:48;13.20;99.90
12315;DHT22;23886;46.614;14.276;2023-04-30T07:13:15;13.30;99.90
12315;DHT22;23886;46.614;14.276;2023-04-30T07:15:42;13.40;99.90
12315;DHT22;23886;46.614;14.276;2023-04-30T07:18:09;13.50;99.90
12315;DHT22;23886;46.614;14.276;2023-04-30T07:20:36;13.90;99.90
12315;DHT22;23886;46.614;14.276;2023-04-30T07:23:03;13.90;99.90
12315;DHT22;23886;46.614;14.276;2023-04-30T07:25:32;14.00;99.90
12315;DHT22;23886;46.614;14.276;2023-04-30T07:28:00;14.20;99.90
12315;DHT22;23886;46.614;14.276;2023-04-30T07:30:27;14.40;99.90
12315;DHT22;23886;46.614;14.276;2023-04-30T07:32:54;14.50;99.90
12315;DHT22;23886;46.614;14.276;2023-04-30T07:35:21;14.60;99.90
12315;DHT22;23886;46.614;14.276;2023-04-30T07:37:48;14.40;99.90
12315;DHT22;23886;46.614;14.276;2023-04-30T07:40:15;14.40;99.90
12315;DHT22;23886;46.614;14.276;2023-04-30T07:42:44;14.60;99.90
12315;DHT22;23886;46.614;14.276;2023-04-30T07:45:11;14.80;99.90
12315;DHT22;23886;46.614;14.276;2023-04-30T07:47:38;14.90;99.90
12315;DHT22;23886;46.614;14.276;2023-04-30T07:50:06;15.00;99.90
12315;DHT22;23886;46.614;14.276;2023-04-30T07:52:33;15.00;99.90
12315;DHT22;23886;46.614;14.276;2023-04-30T07:55:00;15.10;99.90
12315;DHT22;23886;46.614;14.276;2023-04-30T07:57:27;15.20;99.90
12315;DHT22;23886;46.614;14.276;2023-04-30T07:59:56;15.20;99.90
12315;DHT22;23886;46.614;14.276;2023-04-30T08:02:23;15.40;99.90
12315;DHT22;23886;46.614;14.276;2023-04-30T08:04:50;15.30;99.90
12315;DHT22;23886;46.614;14.276;2023-04-30T08:07:17;15.40;99.90
12315;DHT22;23886;46.614;14.276;2023-04-30T08:09:45;15.50;99.90
12315;DHT22;23886;46.614;14.276;2023-04-30T08:12:12;15.70;99.90
12315;DHT22;23886;46.614;14.276;2023-04-30T08:14:39;15.50;99.90
12315;DHT22;23886;46.614;14.276;2023-04-30T08:17:07;15.60;99.90
12315;DHT22;23886;46.614;14.276;2023-04-30T08:19:34;15.70;99.90
12315;DHT22;23886;46.614;14.276;2023-04-30T08:22:01;16.00;99.90
12315;DHT22;23886;46.614;14.276;2023-04-30T08:24:28;16.20;99.90
12315;DHT22;23886;46.614;14.276;2023-04-30T08:26:55;16.20;99.90
12315;DHT22;23886;46.614;14.276;2023-04-30T08:29:23;16.40;99.90
12315;DHT22;23886;46.614;14.276;2023-04-30T08:31:50;16.50;99.90
12315;DHT22;23886;46.614;14.276;2023-04-30T08:34:18;16.50;99.90
12315;DHT22;23886;46.614;14.276;2023-04-30T08:36:45;16.70;99.90
12315;DHT22;23886;46.614;14.276;2023-04-30T08:39:12;16.90;99.90
12315;DHT22;23886;46.614;14.276;2023-04-30T08:41:41;16.90;99.90
12315;DHT22;23886;46.614;14.276;2023-04-30T08:44:10;17.10;99.90
12315;DHT22;23886;46.614;14.276;2023-04-30T08:46:38;17.10;99.90
12315;DHT22;23886;46.614;14.276;2023-04-30T08:49:06;16.90;99.90
12315;DHT22;23886;46.614;14.276;2023-04-30T08:51:35;17.10;99.90
12315;DHT22;23886;46.614;14.276;2023-04-30T08:54:02;17.30;99.90
12315;DHT22;23886;46.614;14.276;2023-04-30T08:56:29;17.50;99.90
12315;DHT22;23886;46.614;14.276;2023-04-30T08:58:58;17.50;99.90
12315;DHT22;23886;46.614;14.276;2023-04-30T09:01:26;17.80;99.90
12315;DHT22;23886;46.614;14.276;2023-04-30T09:03:54;17.80;99.90
12315;DHT22;23886;46.614;14.276;2023-04-30T09:06:21;17.90;99.90
12315;DHT22;23886;46.614;14.276;2023-04-30T09:08:49;18.10;99.90
12315;DHT22;23886;46.614;14.276;2023-04-30T09:11:24;18.10;99.90
12315;DHT22;23886;46.614;14.276;2023-04-30T09:13:53;18.30;99.90
12315;DHT22;23886;46.614;14.276;2023-04-30T09:16:20;18.40;99.80
12315;DHT22;23886;46.614;14.276;2023-04-30T09:18:48;18.50;99.80
12315;DHT22;23886;46.614;14.276;2023-04-30T09:21:15;18.30;99.90
12315;DHT22;23886;46.614;14.276;2023-04-30T09:23:59;18.50;98.50
12315;DHT22;23886;46.614;14.276;2023-04-30T09:26:30;18.70;95.40
12315;DHT22;23886;46.614;14.276;2023-04-30T09:28:57;18.70;96.10
12315;DHT22;23886;46.614;14.276;2023-04-30T09:31:25;18.80;97.50
12315;DHT22;23886;46.614;14.276;2023-04-30T09:33:52;18.80;97.90
12315;DHT22;23886;46.614;14.276;2023-04-30T09:36:19;18.80;97.00
12315;DHT22;23886;46.614;14.276;2023-04-30T09:38:46;18.90;96.80
12315;DHT22;23886;46.614;14.276;2023-04-30T09:41:23;19.10;97.10
12315;DHT22;23886;46.614;14.276;2023-04-30T09:43:50;19.10;96.20
12315;DHT22;23886;46.614;14.276;2023-04-30T09:46:19;18.80;97.20
12315;DHT22;23886;46.614;14.276;2023-04-30T09:48:46;18.90;96.20
12315;DHT22;23886;46.614;14.276;2023-04-30T09:51:14;19.40;96.40
12315;DHT22;23886;46.614;14.276;2023-04-30T09:53:42;19.70;93.90
12315;DHT22;23886;46.614;14.276;2023-04-30T09:56:11;19.80;92.90
12315;DHT22;23886;46.614;14.276;2023-04-30T09:58:43;20.00;92.10
12315;DHT22;23886;46.614;14.276;2023-04-30T10:01:11;20.10;92.20
12315;DHT22;23886;46.614;14.276;2023-04-30T10:03:39;20.40;94.00
12315;DHT22;23886;46.614;14.276;2023-04-30T10:06:07;20.60;93.70
12315;DHT22;23886;46.614;14.276;2023-04-30T10:08:56;20.80;92.50
12315;DHT22;23886;46.614;14.276;2023-04-30T10:11:27;20.90;91.60
12315;DHT22;23886;46.614;14.276;2023-04-30T10:14:12;20.90;92.90
12315;DHT22;23886;46.614;14.276;2023-04-30T10:16:49;21.10;93.40
12315;DHT22;23886;46.614;14.276;2023-04-30T10:19:19;21.70;91.00
12315;DHT22;23886;46.614;14.276;2023-04-30T10:21:48;21.60;91.10
12315;DHT22;23886;46.614;14.276;2023-04-30T10:24:17;21.30;92.60
12315;DHT22;23886;46.614;14.276;2023-04-30T10:26:45;21.30;91.00
12315;DHT22;23886;46.614;14.276;2023-04-30T10:29:15;20.50;90.20
12315;DHT22;23886;46.614;14.276;2023-04-30T10:31:46;20.40;91.80
12315;DHT22;23886;46.614;14.276;2023-04-30T10:34:20;20.40;91.90
12315;DHT22;23886;46.614;14.276;2023-04-30T10:36:50;20.40;92.30
12315;DHT22;23886;46.614;14.276;2023-04-30T10:39:21;20.30;92.30
12315;DHT22;23886;46.614;14.276;2023-04-30T10:42:00;20.10;91.70
12315;DHT22;23886;46.614;14.276;2023-04-30T10:44:31;20.50;90.60
12315;DHT22;23886;46.614;14.276;2023-04-30T10:46:59;20.70;90.00
12315;DHT22;23886;46.614;14.276;2023-04-30T10:49:27;20.60;89.20
12315;DHT22;23886;46.614;14.276;2023-04-30T10:51:56;20.70;88.90
12315;DHT22;23886;46.614;14.276;2023-04-30T10:54:26;20.90;88.50
12315;DHT22;23886;46.614;14.276;2023-04-30T10:56:53;21.30;90.80
12315;DHT22;23886;46.614;14.276;2023-04-30T10:59:24;21.30;90.10
12315;DHT22;23886;46.614;14.276;2023-04-30T11:01:59;21.30;88.80
12315;DHT22;23886;46.614;14.276;2023-04-30T11:04:27;21.50;85.40
12315;DHT22;23886;46.614;14.276;2023-04-30T11:07:00;21.90;86.00
12315;DHT22;23886;46.614;14.276;2023-04-30T11:09:35;22.00;85.90
12315;DHT22;23886;46.614;14.276;2023-04-30T11:12:04;22.20;81.30
12315;DHT22;23886;46.614;14.276;2023-04-30T11:14:39;21.90;87.30
12315;DHT22;23886;46.614;14.276;2023-04-30T11:17:09;22.10;84.80
12315;DHT22;23886;46.614;14.276;2023-04-30T11:19:44;21.70;85.30
12315;DHT22;23886;46.614;14.276;2023-04-30T11:22:20;21.60;85.70
12315;DHT22;23886;46.614;14.276;2023-04-30T11:25:04;22.10;82.70
12315;DHT22;23886;46.614;14.276;2023-04-30T11:27:32;22.40;81.20
12315;DHT22;23886;46.614;14.276;2023-04-30T11:30:00;22.10;83.50
12315;DHT22;23886;46.614;14.276;2023-04-30T11:32:34;21.80;81.70
12315;DHT22;23886;46.614;14.276;2023-04-30T11:35:01;22.20;82.50
12315;DHT22;23886;46.614;14.276;2023-04-30T11:37:30;21.70;82.90
12315;DHT22;23886;46.614;14.276;2023-04-30T11:40:00;21.50;85.60
12315;DHT22;23886;46.614;14.276;2023-04-30T11:42:28;21.40;83.80
12315;DHT22;23886;46.614;14.276;2023-04-30T11:45:07;21.90;81.80
12315;DHT22;23886;46.614;14.276;2023-04-30T11:47:43;22.20;86.70
12315;DHT22;23886;46.614;14.276;2023-04-30T11:50:11;22.10;84.10
12315;DHT22;23886;46.614;14.276;2023-04-30T11:52:39;22.80;85.50
12315;DHT22;23886;46.614;14.276;2023-04-30T11:55:11;23.00;84.60
12315;DHT22;23886;46.614;14.276;2023-04-30T11:57:40;23.30;84.40
12315;DHT22;23886;46.614;14.276;2023-04-30T12:00:09;23.20;83.20
12315;DHT22;23886;46.614;14.276;2023-04-30T12:02:36;23.20;85.50
12315;DHT22;23886;46.614;14.276;2023-04-30T12:05:10;23.40;78.80
12315;DHT22;23886;46.614;14.276;2023-04-30T12:07:38;22.90;82.40
12315;DHT22;23886;46.614;14.276;2023-04-30T12:10:06;23.60;78.20
12315;DHT22;23886;46.614;14.276;2023-04-30T12:12:36;24.20;78.20
12315;DHT22;23886;46.614;14.276;2023-04-30T12:15:11;24.20;81.40
12315;DHT22;23886;46.614;14.276;2023-04-30T12:17:38;24.90;80.40
12315;DHT22;23886;46.614;14.276;2023-04-30T12:20:08;25.10;75.40
12315;DHT22;23886;46.614;14.276;2023-04-30T12:22:35;25.70;75.90
12315;DHT22;23886;46.614;14.276;2023-04-30T12:25:06;25.10;76.80
12315;DHT22;23886;46.614;14.276;2023-04-30T12:27:34;24.80;81.00
12315;DHT22;23886;46.614;14.276;2023-04-30T12:30:05;24.50;78.80
12315;DHT22;23886;46.614;14.276;2023-04-30T12:32:41;24.70;74.50
12315;DHT22;23886;46.614;14.276;2023-04-30T12:35:13;24.70;75.90
12315;DHT22;23886;46.614;14.276;2023-04-30T12:37:42;23.80;75.60
12315;DHT22;23886;46.614;14.276;2023-04-30T12:40:10;23.60;74.10
12315;DHT22;23886;46.614;14.276;2023-04-30T12:42:37;23.00;78.90
12315;DHT22;23886;46.614;14.276;2023-04-30T12:45:05;22.40;79.60
12315;DHT22;23886;46.614;14.276;2023-04-30T12:47:37;22.20;78.40
12315;DHT22;23886;46.614;14.276;2023-04-30T12:50:08;23.60;79.20
12315;DHT22;23886;46.614;14.276;2023-04-30T12:52:37;23.90;79.70
12315;DHT22;23886;46.614;14.276;2023-04-30T12:55:15;25.10;78.70
12315;DHT22;23886;46.614;14.276;2023-04-30T12:58:04;25.10;76.80
12315;DHT22;23886;46.614;14.276;2023-04-30T13:00:47;25.00;74.50
12315;DHT22;23886;46.614;14.276;2023-04-30T13:03:15;25.70;74.80
12315;DHT22;23886;46.614;14.276;2023-04-30T13:05:46;25.20;72.90
12315;DHT22;23886;46.614;14.276;2023-04-30T13:08:15;25.00;74.50
12315;DHT22;23886;46.614;14.276;2023-04-30T13:10:42;24.90;75.70
12315;DHT22;23886;46.614;14.276;2023-04-30T13:13:09;25.20;78.50
12315;DHT22;23886;46.614;14.276;2023-04-30T13:15:36;25.10;78.30
12315;DHT22;23886;46.614;14.276;2023-04-30T13:18:05;25.00;77.60
12315;DHT22;23886;46.614;14.276;2023-04-30T13:20:33;24.60;76.70
12315;DHT22;23886;46.614;14.276;2023-04-30T13:23:00;24.70;75.00
12315;DHT22;23886;46.614;14.276;2023-04-30T13:25:28;24.40;77.80
12315;DHT22;23886;46.614;14.276;2023-04-30T13:27:55;24.10;77.70
12315;DHT22;23886;46.614;14.276;2023-04-30T13:30:22;24.80;76.40
12315;DHT22;23886;46.614;14.276;2023-04-30T13:32:50;25.10;74.70
12315;DHT22;23886;46.614;14.276;2023-04-30T13:35:17;24.90;77.50
12315;DHT22;23886;46.614;14.276;2023-04-30T13:37:44;25.10;76.40
12315;DHT22;23886;46.614;14.276;2023-04-30T13:40:12;24.90;75.60
12315;DHT22;23886;46.614;14.276;2023-04-30T13:42:41;24.70;76.30
12315;DHT22;23886;46.614;14.276;2023-04-30T13:45:09;25.80;73.00
12315;DHT22;23886;46.614;14.276;2023-04-30T13:47:36;25.30;72.80
12315;DHT22;23886;46.614;14.276;2023-04-30T13:50:04;25.00;72.50
12315;DHT22;23886;46.614;14.276;2023-04-30T13:52:31;25.20;73.90
12315;DHT22;23886;46.614;14.276;2023-04-30T13:54:58;24.80;74.60
12315;DHT22;23886;46.614;14.276;2023-04-30T13:57:25;24.80;73.40
12315;DHT22;23886;46.614;14.276;2023-04-30T13:59:54;25.90;72.70
12315;DHT22;23886;46.614;14.276;2023-04-30T14:02:21;26.10;72.10
12315;DHT22;23886;46.614;14.276;2023-04-30T14:04:48;26.50;72.90
12315;DHT22;23886;46.614;14.276;2023-04-30T14:07:15;26.20;70.10
12315;DHT22;23886;46.614;14.276;2023-04-30T14:09:42;25.60;72.60
12315;DHT22;23886;46.614;14.276;2023-04-30T14:12:09;25.00;75.40
12315;DHT22;23886;46.614;14.276;2023-04-30T14:14:37;25.90;71.10
12315;DHT22;23886;46.614;14.276;2023-04-30T14:17:05;25.90;72.50
12315;DHT22;23886;46.614;14.276;2023-04-30T14:19:32;25.90;70.50
12315;DHT22;23886;46.614;14.276;2023-04-30T14:21:59;25.10;72.40
12315;DHT22;23886;46.614;14.276;2023-04-30T14:24:26;24.80;72.50
12315;DHT22;23886;46.614;14.276;2023-04-30T14:26:53;24.40;74.10
12315;DHT22;23886;46.614;14.276;2023-04-30T14:29:20;25.10;72.30
12315;DHT22;23886;46.614;14.276;2023-04-30T14:31:47;25.80;71.20
12315;DHT22;23886;46.614;14.276;2023-04-30T14:34:15;25.80;69.80
12315;DHT22;23886;46.614;14.276;2023-04-30T14:36:44;26.20;69.50
12315;DHT22;23886;46.614;14.276;2023-04-30T14:39:11;25.60;69.10
12315;DHT22;23886;46.614;14.276;2023-04-30T14:41:38;25.10;72.40
12315;DHT22;23886;46.614;14.276;2023-04-30T14:44:05;25.30;72.10
12315;DHT22;23886;46.614;14.276;2023-04-30T14:46:32;25.40;71.60
12315;DHT22;23886;46.614;14.276;2023-04-30T14:48:59;24.80;71.30
12315;DHT22;23886;46.614;14.276;2023-04-30T14:51:27;25.50;70.50
12315;DHT22;23886;46.614;14.276;2023-04-30T14:53:56;25.20;70.60
12315;DHT22;23886;46.614;14.276;2023-04-30T14:56:23;24.60;73.10
12315;DHT22;23886;46.614;14.276;2023-04-30T14:58:50;24.60;73.10
12315;DHT22;23886;46.614;14.276;2023-04-30T15:01:18;24.80;72.20
12315;DHT22;23886;46.614;14.276;2023-04-30T15:03:45;24.00;73.30
12315;DHT22;23886;46.614;14.276;2023-04-30T15:06:12;24.00;73.90
12315;DHT22;23886;46.614;14.276;2023-04-30T15:08:40;24.20;73.30
12315;DHT22;23886;46.614;14.276;2023-04-30T15:11:07;24.40;73.80
12315;DHT22;23886;46.614;14.276;2023-04-30T15:13:35;25.60;71.70
12315;DHT22;23886;46.614;14.276;2023-04-30T15:16:02;24.60;71.90
12315;DHT22;23886;46.614;14.276;2023-04-30T15:18:30;23.90;74.20
12315;DHT22;23886;46.614;14.276;2023-04-30T15:20:57;23.80;74.40
12315;DHT22;23886;46.614;14.276;2023-04-30T15:23:24;23.30;75.10
12315;DHT22;23886;46.614;14.276;2023-04-30T15:25:53;23.80;75.30
12315;DHT22;23886;46.614;14.276;2023-04-30T15:28:20;24.00;74.30